Aérodrome :
LOGIN :

S'inscrire | Disclaimer

   EN    FR    IT 

 










Légende :    VFR   VFR Marginal   IFR   IFR Intensif   IFR Très Intensif
Visi : 
Plafond : 
>= 8 km
>= 3000ft
5 à 8 km
1000 à 3000 ft
1500m à 5 km
500 à 1000 ft
800 à 1500m
200 à 500 ft
< 800m
< 200 ft
Symboles :   Orages  Brouillard  Fortes neiges  Fortes précipitations  Vent > 20 kt
SIGMETs :   Divers  Orages  Givrage  Turbulence  Onde Orograph.  Cendres Volcan.







- Altitude de l'aérodrome : 580 ft
- Voir les cartes d'approche


LFOA - Avord

DERNIER METAR :
  • 281200Z AUTO 26012KT 9999 BKN017/// BKN033/// BKN049/// ///TCU 19/16 Q1000 TEMPO 25020G30KT 2500 -TSRA SCT015 BKN030CB

METARs EXPIRÉS :
  • 281130Z AUTO 25013KT 9999 -RA SCT010/// BKN016/// BKN031/// ///CB 18/16 Q1001 TEMPO 25020G30KT 2500 -TSRA BKN010 BKN025TCU
  • 281100Z AUTO 24011KT 9999 -RA SCT011/// BKN032/// BKN049/// ///CB 17/16 Q1001 TEMPO 25020G30KT 2500 -TSRA BKN010 BKN025TCU
  • 281030Z AUTO 22009KT 180V250 9999 FEW016/// SCT023/// BKN036/// ///CB 19/16 Q1001 TEMPO 25020G30KT 2500 -TSRA BKN010 BKN025TCU
  • 281000Z AUTO 21010KT 9999 -RA FEW032/// SCT042/// BKN049/// ///TCU 18/16 Q1001 TEMPO 23015G25KT 4000 SHRA BKN010 BKN025TCU
  • 280930Z AUTO 22007KT 190V250 9999 SCT023/// SCT030/// BKN040/// ///CB 18/16 Q1001 TEMPO 23015G25KT 4000 SHRA BKN010 BKN025TCU

TAF TAF LFOA
Valide du 28 à 09h jusqu'au 29 à 09h UTC


280800Z 2809/2909 22010KT 9999 SCT020 BKN025
TEMPO 2809/2818 23015G25KT 4000 SHRA BKN010 BKN025TCU
PROB30
TEMPO 2812/2818 25020G30KT 2500 -TSRA SCT015 BKN030CB
TEMPO 2901/2907 4000 SHRA BKN010 BKN015TCU
Pas de NOTAMs connus pour ce terrain.



MET'MAP, la Météo Aéronautique d'un coup d'oeil ! - Copyright ORBIFLY Décembre 2007 - Disclaimer

ORBIFLY MET'MAP TEAM :

Programmation & Développement : Alexandra Zaïnal
Conception & Développement : Baudouin d'Aumeries
Co-Programmation & Développement : Marc-Olivier Méhu
Soutien technique & logistique : Manuel Goepfert

Contact : metmap@orbifly.com




SOURCES & CREDITS :

   NOAA